Time;durP1;ratioP1;P1;durP2;ratioP2;P2;SDS_P1;SDS_P2;PMS_P1;PMS_P2;Temp;Humidity;BMP_temperature;BMP_pressure;BME280_temperature;BME280_humidity;BME280_pressure;Samples;Min_cycle;Max_cycle;Signal;HPM_P1;HPM_P2
2022/03/27 00:04:54;;;;;;;;;;;;;;;;;;10565902;27;20051;-75
2022/03/27 00:09:57;;;;;;;35.15;11.57;;;;;;;;;;10555158;28;20374;-73
2022/03/27 00:15:02;;;;;;;36.95;10.75;;;;;;;;;;10557536;27;20040;-74
2022/03/27 00:20:08;;;;;;;40.17;12.93;;;;;;;;;;10552738;27;20132;-75
2022/03/27 00:25:11;;;;;;;28.70;10.90;;;;;;;;;;10549840;27;20229;-76
2022/03/27 00:30:15;;;;;;;35.88;12.02;;;;;;;;;;10579124;27;20033;-76
2022/03/27 00:35:18;;;;;;;;;;;;;;;;;;10566329;27;20193;-75
2022/03/27 00:40:21;;;;;;;39.33;12.93;;;;;;;;;;10568844;28;19920;-75
2022/03/27 00:45:25;;;;;;;39.85;12.35;;;;;;;;;;10578546;28;20130;-76
2022/03/27 00:50:30;;;;;;;36.42;11.48;;;;;;;;;;10573492;28;20052;-78
2022/03/27 00:55:34;;;;;;;32.70;11.18;;;;;;;;;;10560048;28;20808;-75
2022/03/27 01:00:44;;;;;;;37.10;11.27;;;;;;;;;;10566625;28;20072;-76
2022/03/27 01:05:48;;;;;;;40.78;12.00;;;;;;;;;;10550996;28;20629;-75
2022/03/27 01:10:52;;;;;;;40.03;12.43;;;;;;;;;;10552163;28;20039;-76
2022/03/27 01:15:58;;;;;;;41.90;12.07;;;;;;;;;;10563496;28;20039;-76
2022/03/27 01:21:03;;;;;;;37.78;11.73;;;;;;;;;;10566861;28;20032;-77
2022/03/27 01:26:06;;;;;;;37.33;11.55;;;;;;;;;;10558312;28;20460;-77
2022/03/27 01:31:15;;;;;;;40.25;12.10;;;;;;;;;;10588778;27;20058;-77
2022/03/27 01:36:23;;;;;;;36.30;11.50;;;;;;;;;;10557902;27;20415;-76
2022/03/27 01:41:27;;;;;;;39.08;12.13;;;;;;;;;;10587526;27;20055;-76
2022/03/27 01:46:31;;;;;;;35.35;11.32;;;;;;;;;;10564905;27;20495;-75
2022/03/27 01:51:34;;;;;;;;;;;;;;;;;;10571148;27;20126;-75
2022/03/27 01:56:38;;;;;;;37.92;11.27;;;;;;;;;;10557811;27;19931;-75
2022/03/27 02:01:41;;;;;;;27.65;11.23;;;;;;;;;;10563315;27;20111;-75
2022/03/27 02:06:45;;;;;;;39.60;11.03;;;;;;;;;;10556293;27;20134;-76
2022/03/27 02:11:49;;;;;;;32.17;10.37;;;;;;;;;;10569882;27;20100;-75
2022/03/27 02:16:51;;;;;;;;;;;;;;;;;;10566363;27;20080;-75
2022/03/27 02:21:55;;;;;;;36.25;11.07;;;;;;;;;;10563064;27;19920;-75
2022/03/27 02:26:59;;;;;;;33.53;10.60;;;;;;;;;;10557683;27;20046;-76
2022/03/27 02:32:02;;;;;;;;;;;;;;;;;;10564118;27;20491;-77
2022/03/27 02:37:06;;;;;;;37.75;10.73;;;;;;;;;;10569640;27;19935;-77
2022/03/27 02:42:11;;;;;;;34.33;11.23;;;;;;;;;;10565383;27;20103;-75
2022/03/27 02:47:14;;;;;;;41.42;11.40;;;;;;;;;;10557849;27;20044;-76
2022/03/27 02:52:17;;;;;;;33.90;10.07;;;;;;;;;;10571936;27;20060;-75
2022/03/27 02:57:21;;;;;;;33.77;10.97;;;;;;;;;;10583075;22;20303;-70
2022/03/27 03:02:25;;;;;;;36.55;10.82;;;;;;;;;;10485616;28;20044;-72
2022/03/27 03:07:29;;;;;;;35.13;11.23;;;;;;;;;;10501212;28;20476;-72
2022/03/27 03:12:34;;;;;;;35.15;11.25;;;;;;;;;;10489856;28;20064;-71
2022/03/27 03:17:38;;;;;;;32.47;10.45;;;;;;;;;;10512881;28;20056;-71
2022/03/27 03:22:41;;;;;;;30.80;9.90;;;;;;;;;;10511899;28;20036;-71
2022/03/27 03:27:46;;;;;;;33.53;9.97;;;;;;;;;;10515562;28;20039;-74
2022/03/27 03:32:48;;;;;;;;;;;;;;;;;;10489157;28;20047;-71
2022/03/27 03:37:51;;;;;;;29.63;10.23;;;;;;;;;;10515782;28;19964;-71
2022/03/27 03:42:56;;;;;;;30.00;10.47;;;;;;;;;;10514790;28;20058;-72
2022/03/27 03:47:59;;;;;;;35.63;11.53;;;;;;;;;;10498725;28;20664;-72
2022/03/27 03:53:02;;;;;;;36.47;11.88;;;;;;;;;;10510511;28;20120;-73
2022/03/27 03:58:08;;;;;;;33.53;11.30;;;;;;;;;;10489457;28;20633;-70
2022/03/27 04:03:10;;;;;;;26.67;9.30;;;;;;;;;;10485579;28;20096;-71
2022/03/27 04:08:14;;;;;;;36.57;11.03;;;;;;;;;;10508421;28;20066;-72
2022/03/27 04:13:18;;;;;;;30.08;10.95;;;;;;;;;;10491219;28;20055;-71
2022/03/27 04:18:36;;;;;;;38.33;11.20;;;;;;;;;;10493194;28;20088;-73
2022/03/27 04:23:40;;;;;;;;;;;;;;;;;;10519135;28;20089;-71
2022/03/27 04:28:46;;;;;;;29.40;9.50;;;;;;;;;;10520417;28;20081;-70
2022/03/27 04:33:49;;;;;;;25.00;9.20;;;;;;;;;;10500644;28;20052;-71
2022/03/27 04:38:52;;;;;;;29.33;10.03;;;;;;;;;;10497862;28;20043;-71
2022/03/27 04:43:56;;;;;;;32.43;10.50;;;;;;;;;;10520725;28;21023;-73
2022/03/27 04:48:59;;;;;;;;;;;;;;;;;;10512659;28;20118;-71
2022/03/27 04:54:02;;;;;;;27.10;9.17;;;;;;;;;;10507217;28;20424;-72
2022/03/27 04:59:06;;;;;;;29.60;9.10;;;;;;;;;;10507124;28;20806;-72
2022/03/27 05:04:09;;;;;;;27.73;9.23;;;;;;;;;;10493711;28;20112;-71
2022/03/27 05:09:13;;;;;;;27.43;9.60;;;;;;;;;;10515733;28;20024;-70
2022/03/27 05:14:16;;;;;;;;;;;;;;;;;;10494643;28;20071;-70
2022/03/27 05:19:20;;;;;;;27.37;6.87;;;;;;;;;;10498710;28;19923;-72
2022/03/27 05:24:25;;;;;;;28.42;8.50;;;;;;;;;;10522257;28;20028;-72
2022/03/27 05:29:27;;;;;;;29.80;9.27;;;;;;;;;;10505206;28;20093;-72
2022/03/27 05:34:32;;;;;;;27.20;10.00;;;;;;;;;;10517174;28;20242;-72
2022/03/27 05:39:35;;;;;;;;;;;;;;;;;;10522438;28;20028;-75
2022/03/27 05:44:38;;;;;;;28.77;8.57;;;;;;;;;;10520797;28;19958;-75
2022/03/27 05:49:42;;;;;;;33.50;9.52;;;;;;;;;;10487652;28;20413;-76
2022/03/27 05:54:45;;;;;;;27.40;10.40;;;;;;;;;;10502012;28;20063;-74
2022/03/27 05:59:48;;;;;;;17.83;7.13;;;;;;;;;;10491971;28;20546;-72
2022/03/27 06:04:53;;;;;;;27.58;9.70;;;;;;;;;;10503701;28;20056;-71
2022/03/27 06:09:55;;;;;;;24.35;9.25;;;;;;;;;;10504836;28;20036;-75
2022/03/27 06:14:58;;;;;;;20.83;6.93;;;;;;;;;;10502849;28;20414;-73
2022/03/27 06:20:02;;;;;;;16.48;6.47;;;;;;;;;;10498712;28;20614;-74
2022/03/27 06:25:05;;;;;;;;;;;;;;;;;;10502420;28;20106;-73
2022/03/27 06:30:09;;;;;;;29.42;9.60;;;;;;;;;;10502389;28;19970;-74
2022/03/27 06:35:15;;;;;;;24.23;8.68;;;;;;;;;;10519310;28;20040;-71
2022/03/27 06:40:19;;;;;;;24.85;9.57;;;;;;;;;;10492423;28;20040;-74
2022/03/27 06:45:22;;;;;;;;;;;;;;;;;;10523335;28;20059;-73
2022/03/27 06:50:27;;;;;;;29.17;8.82;;;;;;;;;;10489446;28;19967;-70
2022/03/27 06:55:30;;;;;;;24.70;9.95;;;;;;;;;;10495659;28;20055;-73
2022/03/27 07:05:55;;;;;;;31.23;11.95;;;;;;;;;;10519176;28;20056;-73
2022/03/27 07:10:58;;;;;;;31.80;13.65;;;;;;;;;;10492051;28;20086;-74
2022/03/27 07:16:00;;;;;;;29.13;13.25;;;;;;;;;;10502389;28;20047;-73
2022/03/27 07:21:05;;;;;;;29.65;14.23;;;;;;;;;;10516820;28;20096;-76
2022/03/27 07:26:08;;;;;;;31.90;14.55;;;;;;;;;;10493065;28;20365;-74
2022/03/27 07:31:13;;;;;;;30.52;14.45;;;;;;;;;;10486633;28;20131;-72
2022/03/27 07:36:17;;;;;;;26.42;13.93;;;;;;;;;;10502813;28;20534;-74
2022/03/27 07:41:20;;;;;;;26.80;14.30;;;;;;;;;;10500834;28;20104;-74
2022/03/27 07:46:23;;;;;;;28.33;14.52;;;;;;;;;;10521613;28;20512;-72
2022/03/27 07:51:27;;;;;;;27.13;15.02;;;;;;;;;;10498031;28;20044;-73
2022/03/27 07:56:30;;;;;;;26.20;14.80;;;;;;;;;;10494679;28;20062;-74
2022/03/27 08:01:34;;;;;;;26.13;14.55;;;;;;;;;;10516246;28;20144;-74
2022/03/27 08:06:43;;;;;;;29.45;15.30;;;;;;;;;;10521546;28;20081;-71
2022/03/27 08:11:46;;;;;;;22.55;14.18;;;;;;;;;;10499770;28;20436;-74
2022/03/27 08:16:48;;;;;;;24.92;14.75;;;;;;;;;;10488590;28;20120;-75
2022/03/27 08:21:53;;;;;;;21.17;12.63;;;;;;;;;;10516368;28;20571;-74
2022/03/27 08:26:56;;;;;;;28.20;15.35;;;;;;;;;;10501457;28;20040;-75
2022/03/27 08:32:00;;;;;;;23.33;15.52;;;;;;;;;;10511492;28;20105;-74
2022/03/27 08:37:06;;;;;;;27.13;16.00;;;;;;;;;;10511157;28;20404;-73
2022/03/27 08:42:09;;;;;;;23.67;15.27;;;;;;;;;;10491385;28;20044;-73
2022/03/27 08:47:17;;;;;;;25.02;15.07;;;;;;;;;;10507687;28;20036;-72
2022/03/27 08:52:42;;;;;;;28.45;15.43;;;;;;;;;;10486811;28;20123;-75
2022/03/27 08:57:53;;;;;;;22.90;15.05;;;;;;;;;;10496288;28;20048;-73
2022/03/27 09:02:58;;;;;;;24.00;14.82;;;;;;;;;;10491361;28;20119;-75
2022/03/27 09:08:07;;;;;;;23.85;15.65;;;;;;;;;;10515002;28;20040;-72
2022/03/27 09:13:11;;;;;;;26.35;15.63;;;;;;;;;;10510878;28;20036;-75
2022/03/27 09:18:14;;;;;;;25.13;15.52;;;;;;;;;;10510455;28;20044;-74
2022/03/27 09:23:21;;;;;;;24.45;15.27;;;;;;;;;;10493350;28;20032;-74
2022/03/27 09:28:26;;;;;;;28.50;16.55;;;;;;;;;;10512166;28;20040;-71
2022/03/27 09:33:37;;;;;;;30.85;15.82;;;;;;;;;;10505489;28;20048;-75
2022/03/27 09:38:41;;;;;;;25.25;15.38;;;;;;;;;;10490561;28;20041;-74
2022/03/27 09:43:58;;;;;;;27.02;16.95;;;;;;;;;;10494665;28;20040;-67
2022/03/27 09:49:02;;;;;;;26.13;16.80;;;;;;;;;;10507959;28;20032;-69
2022/03/27 09:54:06;;;;;;;27.05;16.52;;;;;;;;;;10512794;28;20032;-69
2022/03/27 09:59:25;;;;;;;25.70;16.33;;;;;;;;;;10525297;28;20078;-67
2022/03/27 10:04:28;;;;;;;23.50;15.55;;;;;;;;;;10518211;28;20036;-70
2022/03/27 10:09:37;;;;;;;25.08;15.85;;;;;;;;;;10491519;28;20132;-73
2022/03/27 10:14:41;;;;;;;27.77;16.70;;;;;;;;;;10498853;28;20143;-72
2022/03/27 10:19:46;;;;;;;27.27;17.67;;;;;;;;;;10513823;28;20113;-72
2022/03/27 10:24:53;;;;;;;26.05;16.88;;;;;;;;;;10513974;28;20048;-73
2022/03/27 10:30:00;;;;;;;35.53;17.67;;;;;;;;;;10493244;28;20035;-70
2022/03/27 10:35:13;;;;;;;26.63;16.80;;;;;;;;;;10512002;28;20102;-75
2022/03/27 10:40:21;;;;;;;26.67;17.50;;;;;;;;;;10516676;28;20036;-73
2022/03/27 10:45:25;;;;;;;26.15;16.63;;;;;;;;;;10518176;28;20056;-73
2022/03/27 10:50:29;;;;;;;23.17;15.85;;;;;;;;;;10487515;28;20132;-71
2022/03/27 10:55:37;;;;;;;24.25;16.15;;;;;;;;;;10513805;28;20491;-70
2022/03/27 11:00:42;;;;;;;33.50;17.13;;;;;;;;;;10516524;28;20563;-71
2022/03/27 11:06:02;;;;;;;24.75;14.68;;;;;;;;;;10516595;28;20101;-72
2022/03/27 11:11:07;;;;;;;22.33;14.85;;;;;;;;;;10499461;28;20032;-72
2022/03/27 11:16:10;;;;;;;22.20;14.23;;;;;;;;;;10494948;28;20397;-73
2022/03/27 11:21:14;;;;;;;21.63;13.55;;;;;;;;;;10513709;28;20055;-73
2022/03/27 11:26:34;;;;;;;21.38;9.70;;;;;;;;;;10505906;28;20052;-74
2022/03/27 11:31:38;;;;;;;23.65;13.70;;;;;;;;;;10510639;28;20364;-73
2022/03/27 11:36:42;;;;;;;25.02;15.13;;;;;;;;;;10515936;28;20028;-73
2022/03/27 11:41:47;;;;;;;25.17;15.57;;;;;;;;;;10512997;28;20391;-74
2022/03/27 11:46:58;;;;;;;26.27;15.07;;;;;;;;;;10515689;28;20802;-73
2022/03/27 11:52:09;;;;;;;25.48;15.25;;;;;;;;;;10495039;28;20044;-73
2022/03/27 11:57:13;;;;;;;24.50;15.43;;;;;;;;;;10501614;28;20392;-73
2022/03/27 12:02:16;;;;;;;26.63;15.70;;;;;;;;;;10489540;28;20380;-74
2022/03/27 12:07:21;;;;;;;27.30;16.45;;;;;;;;;;10496955;28;20499;-75
2022/03/27 12:12:27;;;;;;;25.63;14.43;;;;;;;;;;10517071;28;20135;-73
2022/03/27 12:17:31;;;;;;;23.60;13.55;;;;;;;;;;10490273;28;20048;-73
2022/03/27 12:22:35;;;;;;;25.70;15.77;;;;;;;;;;10514244;28;20060;-73
2022/03/27 12:33:03;;;;;;;28.95;15.27;;;;;;;;;;10484556;28;20460;-73
2022/03/27 12:38:06;;;;;;;25.95;14.52;;;;;;;;;;10513045;28;20036;-73
2022/03/27 12:43:14;;;;;;;23.38;14.15;;;;;;;;;;10498739;28;20637;-73
2022/03/27 12:48:17;;;;;;;24.65;13.95;;;;;;;;;;10494428;28;20484;-74
2022/03/27 12:53:27;;;;;;;26.90;13.40;;;;;;;;;;10494445;28;20626;-74
2022/03/27 12:58:41;;;;;;;31.85;14.88;;;;;;;;;;10514908;28;21835;-72
2022/03/27 13:04:00;;;;;;;25.25;13.02;;;;;;;;;;10515334;28;20039;-74
2022/03/27 13:09:04;;;;;;;23.98;12.40;;;;;;;;;;10514344;28;20678;-74
2022/03/27 13:14:09;;;;;;;26.08;13.48;;;;;;;;;;10520432;28;20028;-74
2022/03/27 13:19:12;;;;;;;19.10;11.10;;;;;;;;;;10509158;28;20458;-72
2022/03/27 13:24:17;;;;;;;22.65;12.32;;;;;;;;;;10514025;28;20036;-72
2022/03/27 13:29:22;;;;;;;26.20;11.85;;;;;;;;;;10498455;28;20074;-74
2022/03/27 13:34:25;;;;;;;23.40;10.73;;;;;;;;;;10513260;28;20421;-72
2022/03/27 13:39:28;;;;;;;21.80;11.15;;;;;;;;;;10509643;28;20142;-74
2022/03/27 13:44:35;;;;;;;21.38;11.00;;;;;;;;;;10522100;28;20555;-74
2022/03/27 13:49:43;;;;;;;22.15;9.68;;;;;;;;;;10513902;28;20031;-73
2022/03/27 13:54:46;;;;;;;20.35;9.88;;;;;;;;;;10511123;28;20032;-72
2022/03/27 13:59:51;;;;;;;23.73;10.93;;;;;;;;;;10516230;28;20041;-73
2022/03/27 14:04:57;;;;;;;20.45;10.02;;;;;;;;;;10502782;28;20677;-72
2022/03/27 14:10:00;;;;;;;19.80;9.77;;;;;;;;;;10495352;28;20041;-72
2022/03/27 14:15:06;;;;;;;20.83;9.27;;;;;;;;;;10523000;28;20467;-74
2022/03/27 14:20:14;;;;;;;16.27;9.17;;;;;;;;;;10511025;28;20109;-74
2022/03/27 14:25:17;;;;;;;22.77;9.98;;;;;;;;;;10497549;28;20040;-74
2022/03/27 14:30:22;;;;;;;18.77;9.32;;;;;;;;;;10498323;28;20044;-67
2022/03/27 14:35:25;;;;;;;19.25;8.48;;;;;;;;;;10518835;28;20547;-68
2022/03/27 14:40:28;;;;;;;17.35;8.55;;;;;;;;;;10498616;28;20097;-70
2022/03/27 14:45:32;;;;;;;17.38;8.13;;;;;;;;;;10501105;28;20114;-72
2022/03/27 14:50:35;;;;;;;19.65;8.23;;;;;;;;;;10515246;28;20036;-70
2022/03/27 15:01:01;;;;;;;18.30;8.07;;;;;;;;;;10491302;28;20043;-73
2022/03/27 15:06:06;;;;;;;20.40;8.27;;;;;;;;;;10514724;28;20143;-72
2022/03/27 15:11:10;;;;;;;17.17;8.15;;;;;;;;;;10491225;28;20450;-72
2022/03/27 15:16:15;;;;;;;16.55;8.02;;;;;;;;;;10519053;28;20088;-73
2022/03/27 15:21:17;;;;;;;20.92;7.53;;;;;;;;;;10495550;28;20417;-71
2022/03/27 15:26:20;;;;;;;18.42;7.30;;;;;;;;;;10498184;28;20189;-70
2022/03/27 15:31:25;;;;;;;14.80;7.72;;;;;;;;;;10515008;28;20387;-70
2022/03/27 15:36:28;;;;;;;15.13;7.38;;;;;;;;;;10496298;28;20032;-70
2022/03/27 15:41:31;;;;;;;16.98;7.50;;;;;;;;;;10514232;28;20048;-72
2022/03/27 15:46:34;;;;;;;;;;;;;;;;;;10494271;28;20043;-69
2022/03/27 15:51:39;;;;;;;16.67;7.38;;;;;;;;;;10498624;28;20318;-71
2022/03/27 15:56:42;;;;;;;16.48;6.93;;;;;;;;;;10505473;28;20588;-70
2022/03/27 16:01:45;;;;;;;;;;;;;;;;;;10486855;28;20142;-70
2022/03/27 16:06:49;;;;;;;18.25;7.28;;;;;;;;;;10495913;28;19939;-68
2022/03/27 16:11:53;;;;;;;13.45;6.10;;;;;;;;;;10511873;28;20028;-69
2022/03/27 16:16:55;;;;;;;14.90;7.45;;;;;;;;;;10501789;28;20471;-71
2022/03/27 16:22:01;;;;;;;15.98;6.65;;;;;;;;;;10495122;28;20546;-70
2022/03/27 16:27:05;;;;;;;16.30;6.55;;;;;;;;;;10518591;28;20073;-70
2022/03/27 16:32:08;;;;;;;17.65;7.35;;;;;;;;;;10489897;28;20044;-71
2022/03/27 16:37:12;;;;;;;16.50;6.65;;;;;;;;;;10489971;28;20575;-68
2022/03/27 16:42:16;;;;;;;14.85;6.13;;;;;;;;;;10493081;28;20526;-67
2022/03/27 16:47:19;;;;;;;14.60;6.25;;;;;;;;;;10505298;28;20367;-66
2022/03/27 16:52:23;;;;;;;14.98;6.68;;;;;;;;;;10513749;28;20093;-70
2022/03/27 16:57:26;;;;;;;20.10;7.18;;;;;;;;;;10483313;28;20075;-69
2022/03/27 17:02:29;;;;;;;15.02;7.32;;;;;;;;;;10501888;28;20032;-69
2022/03/27 17:07:34;;;;;;;12.73;5.70;;;;;;;;;;10515027;22;20108;-76
2022/03/27 17:12:36;;;;;;;15.30;6.07;;;;;;;;;;10526235;28;20028;-76
2022/03/27 17:17:39;;;;;;;15.20;6.27;;;;;;;;;;10513120;28;20108;-78
2022/03/27 17:22:44;;;;;;;15.95;6.00;;;;;;;;;;10520360;28;20294;-79
2022/03/27 17:27:48;;;;;;;18.35;6.32;;;;;;;;;;10528183;28;20051;-78
2022/03/27 17:32:50;;;;;;;18.03;6.03;;;;;;;;;;10520297;28;20105;-78
2022/03/27 17:37:55;;;;;;;15.50;5.87;;;;;;;;;;10514686;28;20528;-77
2022/03/27 17:42:59;;;;;;;18.17;6.22;;;;;;;;;;10504932;28;21604;-77
2022/03/27 17:48:02;;;;;;;15.85;6.03;;;;;;;;;;10513196;28;20097;-78
2022/03/27 17:53:06;;;;;;;15.77;6.27;;;;;;;;;;10517263;28;20139;-77
2022/03/27 17:58:11;;;;;;;16.88;6.35;;;;;;;;;;10520199;28;20068;-80
2022/03/27 18:03:14;;;;;;;20.33;6.60;;;;;;;;;;10524736;28;20441;-76
2022/03/27 18:08:20;;;;;;;16.95;5.85;;;;;;;;;;10518268;28;20107;-77
2022/03/27 18:13:23;;;;;;;19.45;6.70;;;;;;;;;;10516373;28;20047;-76
2022/03/27 18:18:26;;;;;;;16.43;6.60;;;;;;;;;;10520300;28;20440;-78
2022/03/27 18:23:35;;;;;;;17.97;6.60;;;;;;;;;;10520225;28;20036;-78
2022/03/27 18:28:39;;;;;;;15.57;7.05;;;;;;;;;;10532078;28;20067;-82
2022/03/27 18:33:42;;;;;;;20.25;7.10;;;;;;;;;;10526571;28;20039;-78
2022/03/27 18:38:47;;;;;;;19.63;7.68;;;;;;;;;;10511732;28;20148;-78
2022/03/27 18:43:50;;;;;;;20.48;7.45;;;;;;;;;;10532929;28;20028;-79
2022/03/27 18:48:53;;;;;;;16.20;6.30;;;;;;;;;;10535354;28;20035;-77
2022/03/27 18:53:57;;;;;;;21.27;7.30;;;;;;;;;;10534970;28;20113;-76
2022/03/27 18:59:01;;;;;;;20.63;8.88;;;;;;;;;;10529652;28;20086;-76
2022/03/27 19:04:04;;;;;;;;;;;;;;;;;;10527308;28;20374;-77
2022/03/27 19:09:10;;;;;;;22.05;8.45;;;;;;;;;;10527212;28;19955;-78
2022/03/27 19:14:13;;;;;;;19.05;7.53;;;;;;;;;;10533083;28;20036;-77
2022/03/27 19:19:34;;;;;;;23.08;7.95;;;;;;;;;;10534362;28;20076;-77
2022/03/27 19:24:39;;;;;;;20.05;7.70;;;;;;;;;;10519427;28;20335;-78
2022/03/27 19:29:43;;;;;;;25.73;9.43;;;;;;;;;;10518144;28;20048;-75
2022/03/27 19:34:46;;;;;;;20.50;7.47;;;;;;;;;;10527598;28;20090;-79
2022/03/27 19:39:50;;;;;;;21.27;8.27;;;;;;;;;;10525789;28;20047;-77
2022/03/27 19:44:53;;;;;;;15.70;6.55;;;;;;;;;;10538483;28;20039;-78
2022/03/27 19:49:56;;;;;;;16.30;6.40;;;;;;;;;;10540160;28;20044;-79
2022/03/27 19:55:01;;;;;;;19.23;7.10;;;;;;;;;;10539042;28;20150;-79
2022/03/27 20:00:08;;;;;;;19.80;7.28;;;;;;;;;;10542890;28;20047;-80
2022/03/27 20:05:12;;;;;;;26.83;7.60;;;;;;;;;;10533614;28;20144;-78
2022/03/27 20:10:16;;;;;;;22.25;8.40;;;;;;;;;;10544144;28;20040;-79
2022/03/27 20:15:19;;;;;;;21.08;7.80;;;;;;;;;;10541159;28;20097;-80
2022/03/27 20:20:22;;;;;;;21.87;7.80;;;;;;;;;;10528316;28;20039;-79
2022/03/27 20:25:27;;;;;;;26.35;8.13;;;;;;;;;;10528460;28;20071;-80
2022/03/27 20:30:30;;;;;;;21.17;8.02;;;;;;;;;;10529180;28;20127;-78
2022/03/27 20:35:33;;;;;;;28.50;9.15;;;;;;;;;;10519528;28;20358;-80
2022/03/27 20:40:38;;;;;;;29.27;8.70;;;;;;;;;;10517209;28;20097;-78
2022/03/27 20:45:42;;;;;;;26.67;8.82;;;;;;;;;;10514378;28;20116;-79
2022/03/27 20:50:46;;;;;;;21.05;8.35;;;;;;;;;;10518022;28;20039;-82
2022/03/27 20:55:51;;;;;;;27.63;8.80;;;;;;;;;;10516572;28;20525;-78
2022/03/27 21:00:54;;;;;;;23.67;8.75;;;;;;;;;;10517819;28;20040;-79
2022/03/27 21:05:58;;;;;;;23.43;8.53;;;;;;;;;;10517999;28;20139;-78
2022/03/27 21:11:02;;;;;;;28.33;9.20;;;;;;;;;;10513218;28;20045;-77
2022/03/27 21:16:05;;;;;;;21.33;8.02;;;;;;;;;;10525457;22;20123;-74
2022/03/27 21:21:09;;;;;;;27.05;8.00;;;;;;;;;;10481568;28;20037;-75
2022/03/27 21:26:14;;;;;;;26.73;8.67;;;;;;;;;;10469822;28;20135;-75
2022/03/27 21:31:19;;;;;;;23.23;8.25;;;;;;;;;;10460725;28;20048;-76
2022/03/27 21:36:23;;;;;;;21.95;8.35;;;;;;;;;;10440028;28;20025;-74
2022/03/27 21:41:27;;;;;;;23.50;8.23;;;;;;;;;;10462951;28;20067;-73
2022/03/27 21:46:30;;;;;;;23.38;8.05;;;;;;;;;;10460874;28;20078;-73
2022/03/27 21:51:33;;;;;;;21.65;8.13;;;;;;;;;;10461229;28;20047;-74
2022/03/27 21:56:37;;;;;;;25.30;9.23;;;;;;;;;;10489827;28;20062;-73
2022/03/27 22:01:41;;;;;;;22.70;7.93;;;;;;;;;;10455311;28;20458;-72
2022/03/27 22:06:44;;;;;;;40.30;12.98;;;;;;;;;;10471806;28;20059;-73
2022/03/27 22:11:48;;;;;;;32.77;12.20;;;;;;;;;;10449410;28;20446;-73
2022/03/27 22:16:51;;;;;;;;;;;;;;;;;;10478202;28;20063;-74
2022/03/27 22:21:54;;;;;;;23.42;8.68;;;;;;;;;;10468712;28;19924;-73
2022/03/27 22:26:59;;;;;;;22.77;8.52;;;;;;;;;;10457646;28;20359;-73
2022/03/27 22:32:01;;;;;;;;;;;;;;;;;;10452036;28;20424;-74
2022/03/27 22:37:05;;;;;;;24.20;7.70;;;;;;;;;;10448860;28;20318;-72
2022/03/27 22:42:09;;;;;;;26.37;9.33;;;;;;;;;;10469844;28;20049;-72
2022/03/27 22:47:13;;;;;;;25.65;7.30;;;;;;;;;;10467903;28;20708;-72
2022/03/27 22:52:16;;;;;;;21.95;7.93;;;;;;;;;;10447166;28;20037;-75
2022/03/27 22:57:20;;;;;;;25.65;8.63;;;;;;;;;;10448965;28;20041;-75
2022/03/27 23:02:23;;;;;;;;;;;;;;;;;;10454401;28;20037;-75
2022/03/27 23:07:26;;;;;;;21.25;7.35;;;;;;;;;;10456290;28;19967;-75
2022/03/27 23:12:30;;;;;;;22.53;8.93;;;;;;;;;;10447942;28;20061;-73
2022/03/27 23:17:34;;;;;;;18.55;7.70;;;;;;;;;;10475527;28;20033;-74
2022/03/27 23:22:37;;;;;;;22.37;8.40;;;;;;;;;;10446267;28;20049;-73
2022/03/27 23:27:42;;;;;;;24.20;7.93;;;;;;;;;;10449416;28;20033;-74
2022/03/27 23:32:45;;;;;;;21.48;8.68;;;;;;;;;;10447227;28;20046;-73
2022/03/27 23:37:48;;;;;;;22.40;7.30;;;;;;;;;;10466227;28;20040;-73
2022/03/27 23:42:56;;;;;;;23.25;7.78;;;;;;;;;;10448749;28;20048;-73
2022/03/27 23:47:58;;;;;;;;;;;;;;;;;;10447162;28;20493;-73
2022/03/27 23:53:01;;;;;;;23.92;8.35;;;;;;;;;;10447681;28;19921;-72
2022/03/27 23:58:06;;;;;;;21.80;8.25;;;;;;;;;;10438134;28;20661;-72
